Time;durP1;ratioP1;P1;durP2;ratioP2;P2;SDS_P1;SDS_P2;PMS_P1;PMS_P2;Temp;Humidity;BMP_temperature;BMP_pressure;BME280_temperature;BME280_humidity;BME280_pressure;Samples;Min_cycle;Max_cycle;Signal;HPM_P1;HPM_P2
2021/06/24 00:01:04;;;;;;;13.95;7.08;;;;;;;19.27;72.76;101677.36;1695085;83;21136;-86
2021/06/24 00:03:32;;;;;;;22.37;8.15;;;;;;;19.28;72.67;101675.16;1695199;83;21086;-86
2021/06/24 00:05:59;;;;;;;16.23;6.87;;;;;;;19.29;72.73;101700.95;1695386;83;21797;-85
2021/06/24 00:08:26;;;;;;;21.15;8.18;;;;;;;19.32;72.72;101692.97;1694788;83;21057;-86
2021/06/24 00:10:56;;;;;;;16.17;7.75;;;;;;;19.33;72.72;101674.74;1694908;83;21489;-86
2021/06/24 00:13:23;;;;;;;16.27;7.62;;;;;;;19.32;72.62;101676.95;1694916;83;21085;-86
2021/06/24 00:15:50;;;;;;;13.22;7.67;;;;;;;19.33;72.76;101680.50;1695109;83;21002;-84
2021/06/24 00:18:17;;;;;;;16.40;7.53;;;;;;;19.34;72.76;101675.17;1660784;86;22363;-85
2021/06/24 00:20:44;;;;;;;18.00;7.67;;;;;;;19.33;72.76;101676.49;1689847;84;21078;-84
2021/06/24 00:23:11;;;;;;;14.13;6.50;;;;;;;19.32;72.85;101673.39;1690112;84;21557;-85
2021/06/24 00:25:37;;;;;;;19.87;7.60;;;;;;;19.36;73.00;101676.06;1690004;84;21011;-86
2021/06/24 00:28:04;;;;;;;17.67;7.62;;;;;;;19.37;72.92;101679.62;1690189;84;21176;-86
2021/06/24 00:30:31;;;;;;;22.37;8.50;;;;;;;19.39;72.99;101679.21;1690190;84;21746;-87
2021/06/24 00:33:00;;;;;;;17.82;7.83;;;;;;;19.39;72.83;101681.88;1689997;84;21583;-86
2021/06/24 00:35:26;;;;;;;14.53;7.65;;;;;;;19.38;72.91;101686.76;1690425;84;21086;-86
2021/06/24 00:37:53;;;;;;;12.88;7.62;;;;;;;19.37;72.97;101684.54;1690381;84;21497;-87
2021/06/24 00:40:22;;;;;;;20.37;8.08;;;;;;;19.41;73.08;101692.13;1667559;84;21101;-86
2021/06/24 00:42:48;;;;;;;18.65;8.70;;;;;;;19.40;72.93;101679.64;1646643;87;21849;-87
2021/06/24 00:45:16;;;;;;;19.37;8.80;;;;;;;19.37;72.96;101679.20;1680473;85;21072;-86
2021/06/24 00:47:42;;;;;;;18.73;9.30;;;;;;;19.34;72.95;101679.62;1681780;84;21563;-85
2021/06/24 00:50:10;;;;;;;16.52;9.58;;;;;;;19.30;73.01;101680.51;1680810;84;21060;-85
2021/06/24 00:52:37;;;;;;;21.97;10.38;;;;;;;19.31;73.02;101669.81;1680601;84;21085;-85
2021/06/24 00:55:05;;;;;;;21.90;9.78;;;;;;;19.29;72.98;101676.92;1680768;84;21765;-84
2021/06/24 00:57:32;;;;;;;20.85;10.32;;;;;;;19.28;72.97;101671.16;1680780;84;21089;-85
2021/06/24 00:59:59;;;;;;;21.65;10.50;;;;;;;19.27;72.93;101664.47;1679947;84;21702;-85
2021/06/24 01:02:26;;;;;;;16.87;9.13;;;;;;;19.24;72.95;101669.37;1680826;85;21283;-85
2021/06/24 01:04:52;;;;;;;23.00;10.05;;;;;;;19.19;72.78;101666.66;1680760;84;21006;-84
2021/06/24 01:07:19;;;;;;;28.10;11.10;;;;;;;19.14;72.68;101666.19;1680811;84;22683;-85
2021/06/24 01:09:46;;;;;;;24.35;10.13;;;;;;;19.10;72.32;101661.73;1680762;85;21065;-86
2021/06/24 01:12:12;;;;;;;23.98;10.45;;;;;;;19.06;72.37;101660.83;1680427;84;21378;-84
2021/06/24 01:14:39;;;;;;;20.32;9.53;;;;;;;19.02;72.32;101666.59;1678968;84;21365;-84
2021/06/24 01:17:06;;;;;;;25.48;11.08;;;;;;;19.04;72.10;101664.81;1681237;84;21140;-86
2021/06/24 01:19:32;;;;;;;20.50;9.60;;;;;;;19.04;72.05;101674.61;1680841;85;22577;-86
2021/06/24 01:21:59;;;;;;;17.85;9.88;;;;;;;19.08;71.97;101681.73;1681142;84;21033;-86
2021/06/24 01:24:26;;;;;;;17.55;10.03;;;;;;;19.11;71.81;101687.09;1680165;84;21076;-86
2021/06/24 01:26:53;;;;;;;16.48;9.50;;;;;;;19.11;71.76;101682.22;1680788;85;21163;-86
2021/06/24 01:29:19;;;;;;;25.23;10.65;;;;;;;19.11;71.76;101672.88;1680672;84;21100;-85
2021/06/24 01:31:46;;;;;;;22.80;10.05;;;;;;;19.08;71.58;101668.84;1680788;85;21209;-86
2021/06/24 01:34:12;;;;;;;21.07;9.70;;;;;;;19.05;71.58;101669.73;1680683;84;21054;-86
2021/06/24 01:36:39;;;;;;;19.27;10.58;;;;;;;19.04;71.42;101664.81;1680501;84;21548;-86
2021/06/24 01:39:10;;;;;;;20.92;9.40;;;;;;;19.03;71.27;101668.80;1679391;84;21089;-85
2021/06/24 01:41:37;;;;;;;20.60;10.13;;;;;;;19.05;71.20;101677.73;1680238;85;21469;-84
2021/06/24 01:44:04;;;;;;;22.07;10.00;;;;;;;19.05;71.02;101675.07;1680515;84;21781;-83
2021/06/24 01:46:31;;;;;;;18.20;9.05;;;;;;;19.04;70.95;101667.94;1680683;84;21124;-84
2021/06/24 01:48:57;;;;;;;18.60;9.90;;;;;;;19.04;70.93;101667.48;1680648;85;21888;-84
2021/06/24 01:51:24;;;;;;;20.82;9.38;;;;;;;19.07;70.90;101671.97;1680075;85;21081;-83
2021/06/24 01:53:51;;;;;;;21.95;10.20;;;;;;;19.08;70.85;101668.39;1680637;84;21073;-83
2021/06/24 01:56:18;;;;;;;19.37;9.28;;;;;;;19.11;70.72;101673.75;1680597;84;22335;-84
2021/06/24 01:58:45;;;;;;;25.43;9.30;;;;;;;19.12;70.55;101666.63;1680457;84;21088;-84
2021/06/24 02:01:12;;;;;;;15.43;8.88;;;;;;;19.10;70.44;101653.28;1680294;84;21080;-84
2021/06/24 02:03:39;;;;;;;25.90;9.70;;;;;;;19.14;70.55;101654.19;1680618;84;21173;-84
2021/06/24 02:06:05;;;;;;;21.50;9.85;;;;;;;19.17;70.54;101651.09;1680754;85;21060;-85
2021/06/24 02:08:38;;;;;;;19.10;9.10;;;;;;;19.20;70.41;101647.53;1680751;84;21764;-85
2021/06/24 02:11:02;;;;;;;19.90;8.05;;;;;;;19.20;70.17;101644.44;1680307;85;21092;-83
2021/06/24 02:13:29;;;;;;;17.65;7.92;;;;;;;19.18;70.25;101642.21;1680799;85;21033;-84
2021/06/24 02:15:56;;;;;;;17.98;8.15;;;;;;;19.22;70.12;101640.45;1680763;85;21045;-87
2021/06/24 02:18:23;;;;;;;19.52;8.45;;;;;;;19.22;69.95;101635.98;1680846;84;21096;-86
2021/06/24 02:20:49;;;;;;;19.40;8.33;;;;;;;19.19;69.84;101634.63;1680819;85;22426;-86
2021/06/24 02:23:16;;;;;;;18.67;8.48;;;;;;;19.13;69.86;101627.95;1680651;84;21606;-86
2021/06/24 02:25:43;;;;;;;18.25;8.43;;;;;;;19.09;69.90;101622.16;1680869;85;21089;-86
2021/06/24 02:28:10;;;;;;;17.95;7.85;;;;;;;19.08;69.90;101625.70;1680723;85;21646;-86
2021/06/24 02:30:36;;;;;;;18.85;8.65;;;;;;;19.10;69.89;101618.59;1680771;85;21042;-86
2021/06/24 02:33:06;;;;;;;19.50;8.25;;;;;;;19.13;69.93;101617.27;1680808;85;21759;-85
2021/06/24 02:35:35;;;;;;;19.15;8.73;;;;;;;19.17;69.84;101617.73;1680683;84;21088;-84
2021/06/24 02:38:02;;;;;;;15.50;8.38;;;;;;;19.21;69.74;101618.62;1680919;84;21100;-84
2021/06/24 02:40:28;;;;;;;18.70;9.73;;;;;;;19.23;69.61;101612.85;1683928;84;21565;-84
2021/06/24 02:42:55;;;;;;;21.02;8.85;;;;;;;19.25;69.68;101615.53;1692067;82;21114;-85
2021/06/24 02:45:22;;;;;;;23.95;9.30;;;;;;;19.25;69.58;101619.08;1693354;84;21675;-84
2021/06/24 02:47:49;;;;;;;19.60;9.30;;;;;;;19.26;69.63;101617.30;1693496;84;21623;-85
2021/06/24 02:50:16;;;;;;;18.40;8.90;;;;;;;19.32;69.73;101622.67;1693476;83;21071;-85
2021/06/24 02:52:43;;;;;;;18.25;9.38;;;;;;;19.36;69.56;101624.45;1693614;83;21070;-84
2021/06/24 02:55:11;;;;;;;18.45;8.88;;;;;;;19.33;69.37;101625.77;1693096;84;21150;-84
2021/06/24 02:57:38;;;;;;;15.00;8.20;;;;;;;19.33;69.37;101621.35;1693366;82;21800;-84
2021/06/24 03:00:07;;;;;;;14.80;8.03;;;;;;;19.39;69.23;101621.81;1693384;84;21099;-84
2021/06/24 03:02:34;;;;;;;13.35;8.50;;;;;;;19.41;69.21;101626.70;1693243;83;21138;-84
2021/06/24 03:05:01;;;;;;;21.33;9.10;;;;;;;19.43;69.18;101620.92;1693465;84;21083;-85
2021/06/24 03:07:27;;;;;;;16.00;8.78;;;;;;;19.47;69.20;101622.70;1693392;84;21086;-84
2021/06/24 03:09:54;;;;;;;15.55;8.65;;;;;;;19.51;69.19;101627.16;1693498;84;21765;-86
2021/06/24 03:12:21;;;;;;;19.57;8.58;;;;;;;19.51;69.25;101620.94;1693318;84;21053;-86
2021/06/24 03:14:48;;;;;;;17.62;9.75;;;;;;;19.54;69.33;101616.91;1693877;84;21103;-87
2021/06/24 03:17:14;;;;;;;18.90;9.15;;;;;;;19.53;69.25;101610.69;1694106;84;21667;-88
2021/06/24 03:19:41;;;;;;;19.10;10.03;;;;;;;19.51;69.25;101603.13;1693881;84;21019;-88
2021/06/24 03:22:08;;;;;;;16.73;9.40;;;;;;;19.50;69.20;101596.44;1694013;83;21770;-87
2021/06/24 03:24:35;;;;;;;18.25;8.70;;;;;;;19.50;69.21;101604.45;1693706;84;21098;-88
2021/06/24 03:27:01;;;;;;;20.97;8.88;;;;;;;19.48;69.21;101608.91;1694086;84;21187;-88
2021/06/24 03:29:28;;;;;;;21.60;9.30;;;;;;;19.51;69.28;101615.59;1694207;84;21546;-89
2021/06/24 03:31:55;;;;;;;17.60;8.90;;;;;;;19.55;69.23;101616.04;1693943;84;20996;-89
2021/06/24 03:34:22;;;;;;;15.90;8.53;;;;;;;19.53;69.22;101625.38;1693901;84;21808;-88
2021/06/24 03:36:50;;;;;;;13.22;9.13;;;;;;;19.57;69.29;101627.16;1693936;84;47044;-87
2021/06/24 03:39:17;;;;;;;15.65;9.60;;;;;;;19.60;69.33;101632.97;1694212;84;21035;-88
2021/06/24 03:41:43;;;;;;;14.93;9.15;;;;;;;19.60;69.26;101629.84;1705083;83;21175;-90
2021/06/24 03:44:10;;;;;;;18.82;9.03;;;;;;;19.61;69.22;101626.72;1709075;83;21070;-90
2021/06/24 03:46:37;;;;;;;14.85;9.25;;;;;;;19.62;69.13;101629.86;1709120;83;21770;-87
2021/06/24 03:49:04;;;;;;;17.30;10.03;;;;;;;19.60;69.11;101627.63;1709109;84;21073;-87
2021/06/24 03:51:31;;;;;;;17.50;8.43;;;;;;;19.59;69.07;101622.71;1708961;84;21085;-87
2021/06/24 03:53:58;;;;;;;15.13;8.50;;;;;;;19.56;68.96;101625.84;1708941;83;21008;-87
2021/06/24 03:56:25;;;;;;;16.97;8.03;;;;;;;19.55;69.05;101629.39;1680403;84;21086;-86
2021/06/24 03:58:51;;;;;;;14.98;8.93;;;;;;;19.55;69.06;101632.95;1708992;84;21851;-87
2021/06/24 04:01:18;;;;;;;15.90;7.97;;;;;;;19.57;69.05;101635.62;1680479;84;21571;-81
2021/06/24 04:03:44;;;;;;;17.37;8.83;;;;;;;19.58;68.98;101628.08;1708595;83;21035;-82
2021/06/24 04:06:13;;;;;;;14.80;8.55;;;;;;;19.57;68.88;101635.17;1708380;84;21579;-81
2021/06/24 04:08:41;;;;;;;13.65;7.90;;;;;;;19.57;68.88;101634.30;1708605;83;22343;-82
2021/06/24 04:11:08;;;;;;;16.42;8.25;;;;;;;19.59;68.85;101633.39;1708233;84;22140;-81
2021/06/24 04:13:35;;;;;;;11.88;8.00;;;;;;;19.57;68.77;101629.83;1708318;83;21034;-82
2021/06/24 04:16:01;;;;;;;17.65;7.60;;;;;;;19.59;68.87;101632.06;1708674;83;21059;-82
2021/06/24 04:18:28;;;;;;;20.77;9.70;;;;;;;19.64;68.89;101627.20;1708596;83;21142;-82
2021/06/24 04:20:54;;;;;;;15.88;9.05;;;;;;;19.69;68.84;101620.05;1708562;83;21077;-82
2021/06/24 04:23:21;;;;;;;14.93;8.95;;;;;;;19.75;68.71;101608.09;1708451;84;22469;-82
2021/06/24 04:25:50;;;;;;;17.00;11.78;;;;;;;19.79;68.71;101594.73;1708425;83;20987;-81
2021/06/24 04:28:16;;;;;;;20.00;10.63;;;;;;;19.85;68.60;101588.50;1708310;83;21066;-85
2021/06/24 04:30:43;;;;;;;14.45;9.80;;;;;;;19.99;68.72;101588.52;1708351;84;21322;-89
2021/06/24 04:33:10;;;;;;;11.50;7.90;;;;;;;20.16;68.63;101581.36;1708725;83;21038;-85
2021/06/24 04:35:37;;;;;;;14.53;7.15;;;;;;;20.35;68.35;101582.67;1709155;84;21702;-90
2021/06/24 04:38:09;;;;;;;15.38;7.85;;;;;;;20.54;68.13;101584.39;1704259;83;21104;-90
2021/06/24 04:40:37;;;;;;;14.00;9.23;;;;;;;20.76;67.75;101580.36;1704728;83;21595;-81
2021/06/24 04:43:05;;;;;;;14.68;8.38;;;;;;;20.92;67.39;101579.37;1700001;83;21650;-81
2021/06/24 04:45:32;;;;;;;14.90;7.97;;;;;;;21.03;66.93;101580.66;1697955;83;21160;-82
2021/06/24 04:47:59;;;;;;;13.22;7.80;;;;;;;21.03;66.38;101577.98;1693435;82;21215;-83
2021/06/24 04:50:28;;;;;;;16.30;7.85;;;;;;;20.96;66.20;101582.92;1693435;84;21483;-84
2021/06/24 04:52:55;;;;;;;14.55;7.37;;;;;;;20.99;66.35;101587.39;1693369;84;21658;-84
2021/06/24 04:55:23;;;;;;;10.05;6.80;;;;;;;21.05;66.26;101598.94;1693290;83;21071;-84
2021/06/24 04:57:49;;;;;;;13.70;6.50;;;;;;;21.10;66.22;101601.61;1693443;83;21083;-83
2021/06/24 05:00:21;;;;;;;14.03;6.67;;;;;;;21.16;66.24;101598.89;1698527;82;22401;-83
2021/06/24 05:02:47;;;;;;;13.90;7.10;;;;;;;21.25;66.20;101587.26;1666500;84;21031;-80
2021/06/24 05:05:14;;;;;;;11.43;7.67;;;;;;;21.35;65.92;101583.15;1665331;86;21098;-81
2021/06/24 05:07:40;;;;;;;13.83;8.13;;;;;;;21.53;66.04;101574.61;1665311;86;21101;-81
2021/06/24 05:10:11;;;;;;;13.30;7.22;;;;;;;21.84;65.60;101563.17;1664952;86;21114;-81
2021/06/24 05:12:38;;;;;;;13.30;8.03;;;;;;;22.23;65.57;101550.75;1664804;86;22675;-81
2021/06/24 05:15:06;;;;;;;14.58;7.17;;;;;;;22.61;64.75;101562.87;1664825;86;21090;-81
2021/06/24 05:17:32;;;;;;;13.03;6.60;;;;;;;22.77;64.03;101547.02;1664931;86;21086;-81
2021/06/24 05:19:59;;;;;;;16.12;6.97;;;;;;;22.76;63.33;101522.88;1664819;86;21247;-80
2021/06/24 05:22:26;;;;;;;13.25;6.87;;;;;;;22.87;63.06;101554.03;1664852;86;21648;-82
2021/06/24 05:24:53;;;;;;;16.65;6.40;;;;;;;22.82;62.82;101540.23;1664913;86;21869;-81
2021/06/24 05:27:20;;;;;;;15.28;6.03;;;;;;;22.86;62.88;101540.19;1665023;86;21090;-81
2021/06/24 05:29:48;;;;;;;12.47;5.60;;;;;;;23.06;62.71;101556.50;1665180;86;21114;-81
2021/06/24 05:32:15;;;;;;;10.05;5.80;;;;;;;23.11;61.96;101564.52;1665408;86;21400;-81
2021/06/24 05:34:41;;;;;;;17.62;6.65;;;;;;;23.02;61.49;101565.48;1665441;86;21070;-81
2021/06/24 05:37:08;;;;;;;13.15;6.45;;;;;;;22.82;61.44;101575.13;1665452;86;21800;-81
2021/06/24 05:39:35;;;;;;;10.25;5.33;;;;;;;22.61;61.48;101564.21;1665403;83;21020;-81
2021/06/24 05:42:02;;;;;;;11.08;5.28;;;;;;;22.61;61.48;101564.21;1673875;84;21147;-80
2021/06/24 05:44:29;;;;;;;11.53;5.42;;;;;;;22.62;61.43;101588.34;1679202;85;21625;-81
2021/06/24 05:46:56;;;;;;;12.47;6.15;;;;;;;22.49;61.54;101577.33;1679297;85;21075;-81
2021/06/24 05:49:22;;;;;;;14.90;6.17;;;;;;;22.49;61.54;101577.33;1679407;85;22438;-81
2021/06/24 05:51:49;;;;;;;9.93;5.67;;;;;;;22.56;61.85;101562.03;1679077;85;21071;-81
2021/06/24 05:54:16;;;;;;;14.87;5.87;;;;;;;23.01;62.10;101547.58;1679525;85;21071;-81
2021/06/24 05:56:42;;;;;;;14.03;5.87;;;;;;;23.63;61.61;101540.41;1679644;85;21553;-81
2021/06/24 05:59:09;;;;;;;10.70;5.80;;;;;;;24.26;60.73;101538.41;1679745;85;21091;-80
2021/06/24 06:01:40;;;;;;;13.85;5.70;;;;;;;24.72;59.92;101536.61;1679633;84;22584;-80
2021/06/24 06:04:05;;;;;;;12.47;5.53;;;;;;;24.99;59.17;101537.36;1679266;85;22289;-81
2021/06/24 06:06:31;;;;;;;10.95;5.45;;;;;;;25.16;58.16;101549.56;1679828;85;21095;-81
2021/06/24 06:08:58;;;;;;;11.40;6.42;;;;;;;25.14;57.86;101559.50;1679705;84;21071;-80
2021/06/24 06:11:25;;;;;;;11.53;5.47;;;;;;;24.91;57.42;101562.24;1679646;85;21068;-81
2021/06/24 06:13:53;;;;;;;14.05;5.83;;;;;;;24.47;57.26;101555.93;1679785;84;21801;-81
2021/06/24 06:16:21;;;;;;;15.05;5.60;;;;;;;24.18;57.62;101564.11;1679730;85;21060;-80
2021/06/24 06:18:49;;;;;;;13.43;6.62;;;;;;;23.96;57.87;101556.02;1679708;84;21009;-80
2021/06/24 06:21:16;;;;;;;11.43;5.85;;;;;;;23.85;58.20;101555.73;1679898;85;21564;-80
2021/06/24 06:23:44;;;;;;;8.93;5.50;;;;;;;23.84;58.37;101547.72;1679969;85;21384;-79
2021/06/24 06:26:11;;;;;;;16.40;5.62;;;;;;;23.95;58.59;101538.09;1679650;85;22459;-80
2021/06/24 06:28:38;;;;;;;15.90;6.58;;;;;;;24.08;58.57;101540.09;1679547;85;21055;-81
2021/06/24 06:31:04;;;;;;;11.95;5.22;;;;;;;24.15;58.15;101551.18;1679629;85;21091;-80
2021/06/24 06:33:31;;;;;;;13.75;5.85;;;;;;;24.02;58.17;101547.83;1679602;84;21165;-80
2021/06/24 06:35:58;;;;;;;14.13;5.70;;;;;;;23.93;58.12;101552.02;1679836;84;21071;-80
2021/06/24 06:38:25;;;;;;;12.90;5.87;;;;;;;23.63;58.45;101548.47;1679694;85;21830;-80
2021/06/24 06:40:51;;;;;;;13.28;6.12;;;;;;;23.59;58.74;101551.22;1679318;84;21561;-80
2021/06/24 06:43:19;;;;;;;12.47;5.85;;;;;;;23.47;58.83;101551.84;1664796;85;21180;-80
2021/06/24 06:45:47;;;;;;;11.53;5.42;;;;;;;23.47;58.98;101557.69;1664969;85;21827;-81
2021/06/24 06:48:14;;;;;;;11.73;5.65;;;;;;;23.44;59.08;101553.70;1665050;86;21120;-81
2021/06/24 06:50:40;;;;;;;11.97;6.72;;;;;;;23.41;59.23;101549.27;1664995;84;22629;-80
2021/06/24 06:53:25;;;;;;;14.20;6.83;;;;;;;23.36;59.26;101552.47;1664846;85;21585;-81
2021/06/24 06:55:43;;;;;;;14.50;7.28;;;;;;;23.28;59.21;101555.74;1610448;88;21117;-80
2021/06/24 06:58:10;;;;;;;13.58;5.92;;;;;;;23.15;59.17;101557.72;1590151;88;22852;-80
2021/06/24 07:00:37;;;;;;;13.83;6.28;;;;;;;23.15;59.45;101556.84;1612440;88;21669;-80
2021/06/24 07:03:03;;;;;;;12.58;6.30;;;;;;;23.08;59.51;101546.16;1612295;87;22598;-80
2021/06/24 07:05:30;;;;;;;15.45;6.80;;;;;;;23.01;59.41;101548.92;1612211;88;21148;-80
2021/06/24 07:07:57;;;;;;;11.97;5.78;;;;;;;22.90;59.61;101547.29;1612422;87;21106;-80
2021/06/24 07:10:24;;;;;;;10.05;5.53;;;;;;;22.82;59.52;101549.63;1612484;88;21181;-80
2021/06/24 07:12:51;;;;;;;14.55;5.97;;;;;;;22.69;59.91;101547.55;1612390;88;21071;-80
2021/06/24 07:15:17;;;;;;;12.07;5.28;;;;;;;22.54;60.03;101543.72;1612374;88;21770;-80
2021/06/24 07:17:44;;;;;;;8.88;5.60;;;;;;;22.54;60.03;101543.72;1612342;88;21862;-81
2021/06/24 07:20:12;;;;;;;12.03;5.25;;;;;;;22.38;60.13;101541.69;1637421;86;21571;-80
2021/06/24 07:22:39;;;;;;;12.28;5.28;;;;;;;22.35;60.71;101530.98;1665190;86;21582;-80
2021/06/24 07:25:08;;;;;;;11.43;5.58;;;;;;;22.41;60.71;101524.19;1665145;85;21144;-80
2021/06/24 07:27:35;;;;;;;11.48;5.40;;;;;;;22.47;60.78;101518.31;1665175;86;21904;-80
2021/06/24 07:30:02;;;;;;;11.48;6.75;;;;;;;22.60;60.88;101515.46;1665145;85;21095;-80
2021/06/24 07:32:29;;;;;;;13.90;5.60;;;;;;;22.64;60.74;101512.73;1665060;86;21137;-80
2021/06/24 07:34:56;;;;;;;12.88;5.53;;;;;;;22.80;60.76;101510.72;1665134;86;21015;-80
2021/06/24 07:37:22;;;;;;;12.58;4.62;;;;;;;22.96;60.45;101493.96;1665330;84;21089;-80
2021/06/24 07:39:49;;;;;;;10.48;5.55;;;;;;;23.14;60.59;101483.88;1665055;86;21761;-81
2021/06/24 07:42:19;;;;;;;11.18;5.22;;;;;;;23.42;60.41;101474.92;1665314;84;21168;-80
2021/06/24 07:44:45;;;;;;;14.98;7.72;;;;;;;23.65;59.81;101471.86;1655000;85;21110;-80
2021/06/24 07:47:12;;;;;;;12.63;6.05;;;;;;;23.82;59.82;101479.18;1636942;87;21557;-80
2021/06/24 07:49:38;;;;;;;9.70;5.20;;;;;;;24.04;59.38;101474.72;1636814;87;21106;-80
2021/06/24 07:52:05;;;;;;;9.65;4.25;;;;;;;24.12;58.90;101475.48;1636778;87;21766;-80
2021/06/24 07:54:32;;;;;;;12.23;5.50;;;;;;;24.06;58.80;101463.05;1636569;87;21585;-80
2021/06/24 07:56:59;;;;;;;14.05;7.47;;;;;;;24.16;58.57;101461.52;1637123;87;21346;-80
2021/06/24 07:59:25;;;;;;;9.55;6.17;;;;;;;24.30;58.63;101448.64;1636949;87;21158;-80
2021/06/24 08:01:52;;;;;;;12.05;5.78;;;;;;;24.41;57.89;101449.77;1636843;87;21550;-80
2021/06/24 08:04:19;;;;;;;9.50;4.67;;;;;;;24.38;57.92;101448.05;1636525;87;21781;-80
2021/06/24 08:06:46;;;;;;;13.45;5.70;;;;;;;24.40;57.65;101454.71;1636704;87;21130;-80
2021/06/24 08:09:14;;;;;;;9.88;5.00;;;;;;;24.55;57.71;101471.02;1636774;87;21660;-80
2021/06/24 08:11:41;;;;;;;12.53;5.42;;;;;;;24.57;56.99;101478.17;1636714;87;21083;-80
2021/06/24 08:14:08;;;;;;;10.25;4.95;;;;;;;24.38;57.22;101475.39;1636833;87;21142;-80
2021/06/24 08:16:35;;;;;;;11.55;4.25;;;;;;;24.40;57.33;101481.62;1636664;87;21792;-81
2021/06/24 08:19:07;;;;;;;12.45;4.95;;;;;;;24.38;57.36;101482.11;1636627;87;21114;-80
2021/06/24 08:21:33;;;;;;;11.35;5.28;;;;;;;24.30;57.39;101474.20;1636494;87;21103;-81
2021/06/24 08:24:00;;;;;;;12.43;5.17;;;;;;;24.12;57.11;101462.03;1636609;87;21676;-80
2021/06/24 08:26:32;;;;;;;9.38;4.65;;;;;;;23.72;57.34;101464.55;1637056;87;21134;-80
2021/06/24 08:29:00;;;;;;;12.80;5.00;;;;;;;23.38;58.07;101473.20;1616882;87;21794;-81
2021/06/24 08:31:26;;;;;;;9.00;5.22;;;;;;;23.25;58.41;101473.39;1636781;87;21130;-80
2021/06/24 08:33:53;;;;;;;13.55;6.25;;;;;;;23.23;58.86;101456.87;1636704;87;21082;-80
2021/06/24 08:36:20;;;;;;;8.75;5.62;;;;;;;23.35;59.01;101455.34;1636697;87;21641;-81
2021/06/24 08:38:47;;;;;;;9.40;4.62;;;;;;;23.49;59.02;101447.03;1636769;87;21073;-80
2021/06/24 08:41:15;;;;;;;15.32;5.58;;;;;;;23.67;58.48;101453.90;1636683;87;21770;-80
2021/06/24 08:43:41;;;;;;;11.65;4.08;;;;;;;23.73;58.05;101465.88;1644455;86;21066;-80
2021/06/24 08:46:08;;;;;;;9.90;3.90;;;;;;;23.83;58.14;101488.13;1624959;88;21682;-80
2021/06/24 08:48:37;;;;;;;9.35;4.40;;;;;;;23.93;57.99;101495.13;1624855;88;21111;-80
2021/06/24 08:51:06;;;;;;;9.58;4.60;;;;;;;24.03;57.94;101492.67;1625010;88;21165;-80
2021/06/24 08:53:32;;;;;;;9.00;4.45;;;;;;;24.01;57.79;101491.81;1624962;88;21771;-80
2021/06/24 08:55:59;;;;;;;9.08;5.45;;;;;;;23.88;57.71;101480.87;1617164;88;21101;-80
2021/06/24 08:58:26;;;;;;;10.60;4.33;;;;;;;23.81;57.81;101472.48;1599344;89;21146;-80
2021/06/24 09:00:56;;;;;;;7.05;3.90;;;;;;;23.81;57.94;101467.98;1616452;88;21097;-79
2021/06/24 09:03:25;;;;;;;8.80;4.87;;;;;;;23.73;57.84;101459.62;1624287;88;21142;-80
2021/06/24 09:06:06;;;;;;;9.28;4.33;;;;;;;23.63;57.79;101454.84;1624574;88;22836;-80
2021/06/24 09:08:46;;;;;;;12.43;5.50;;;;;;;23.64;58.33;101445.88;1625072;88;21146;-80
2021/06/24 09:11:22;;;;;;;9.33;4.65;;;;;;;23.77;58.26;101443.86;1624610;87;21126;-80
2021/06/24 09:14:02;;;;;;;6.25;4.62;;;;;;;23.86;58.15;101447.28;1644066;86;21550;-80
2021/06/24 09:16:37;;;;;;;12.37;5.50;;;;;;;23.83;57.98;101454.52;1644371;87;21146;-80
2021/06/24 09:19:21;;;;;;;9.30;5.08;;;;;;;23.92;58.13;101465.56;1625058;88;21772;-80
2021/06/24 09:22:03;;;;;;;10.23;4.95;;;;;;;23.86;58.18;101468.79;1624806;88;21588;-80
2021/06/24 09:24:33;;;;;;;9.45;4.75;;;;;;;23.93;57.91;101472.27;1624942;88;21154;-80
2021/06/24 09:27:04;;;;;;;7.53;5.30;;;;;;;23.99;57.98;101464.07;1618847;88;21245;-79
2021/06/24 09:29:32;;;;;;;16.75;9.43;;;;;;;24.01;57.89;101470.77;1621312;88;21587;-80
2021/06/24 09:32:00;;;;;;;9.15;4.90;;;;;;;24.14;57.89;101466.01;1624975;88;22221;-80
2021/06/24 09:34:26;;;;;;;12.05;5.50;;;;;;;24.18;57.62;101462.37;1624926;88;21138;-80
2021/06/24 09:36:58;;;;;;;9.85;5.20;;;;;;;24.24;57.76;101469.84;1644454;85;21052;-80
2021/06/24 09:39:33;;;;;;;10.78;5.87;;;;;;;24.32;57.42;101468.33;1625231;88;21566;-80
2021/06/24 09:42:09;;;;;;;11.25;5.33;;;;;;;24.21;57.39;101469.92;1645455;86;21097;-80
2021/06/24 09:44:42;;;;;;;11.73;5.08;;;;;;;24.24;57.57;101483.75;1593910;88;21877;-82
2021/06/24 09:47:22;;;;;;;10.13;4.58;;;;;;;24.28;57.57;101475.16;1603476;89;21505;-80
2021/06/24 09:49:59;;;;;;;9.08;4.30;;;;;;;24.11;57.28;101478.20;1607655;89;21065;-79
2021/06/24 09:52:26;;;;;;;7.58;4.53;;;;;;;24.02;57.41;101484.16;1606906;89;21101;-80
2021/06/24 09:55:11;;;;;;;7.67;4.97;;;;;;;23.86;57.52;101473.29;1626197;88;21121;-79
2021/06/24 09:57:38;;;;;;;11.53;6.05;;;;;;;23.81;57.63;101471.14;1627049;87;21847;-80
2021/06/24 10:00:28;;;;;;;9.03;4.75;;;;;;;23.84;57.75;101463.02;1627101;87;21089;-80
2021/06/24 10:03:03;;;;;;;8.70;4.20;;;;;;;23.92;57.21;101450.78;1641921;85;21532;-81
2021/06/24 10:05:30;;;;;;;7.92;3.45;;;;;;;24.13;57.11;101458.41;1646236;86;21082;-81
2021/06/24 10:07:57;;;;;;;11.48;4.47;;;;;;;24.22;56.58;101461.38;1625319;88;21116;-81
2021/06/24 10:10:24;;;;;;;5.65;4.00;;;;;;;24.38;56.32;101456.11;1624991;88;21840;-81
2021/06/24 10:12:51;;;;;;;8.38;4.05;;;;;;;24.61;55.96;101461.02;1624990;87;21787;-81
2021/06/24 10:15:18;;;;;;;11.43;3.92;;;;;;;24.83;55.42;101472.64;1625062;88;21105;-81
2021/06/24 10:17:44;;;;;;;8.85;4.30;;;;;;;24.81;54.46;101461.02;1604837;88;21149;-81
2021/06/24 10:20:12;;;;;;;8.10;3.22;;;;;;;24.84;54.07;101452.41;1625028;88;21087;-81
2021/06/24 10:22:40;;;;;;;7.55;3.40;;;;;;;24.76;53.54;101433.34;1624869;88;21208;-81
2021/06/24 10:25:16;;;;;;;6.33;3.67;;;;;;;24.87;54.00;101430.37;1625021;88;21567;-81
2021/06/24 10:27:46;;;;;;;8.20;4.08;;;;;;;25.01;53.31;101424.20;1625189;88;21161;-81
2021/06/24 10:30:18;;;;;;;8.48;3.98;;;;;;;24.96;53.10;101422.98;1625143;88;21165;-81
2021/06/24 10:33:03;;;;;;;10.20;6.83;;;;;;;24.91;53.14;101426.68;1625237;88;21161;-81
2021/06/24 10:35:35;;;;;;;10.90;6.97;;;;;;;24.97;53.54;101428.78;1627318;87;21766;-81
2021/06/24 10:38:01;;;;;;;9.93;3.77;;;;;;;25.29;53.40;101427.60;1625419;88;21113;-81
2021/06/24 10:40:40;;;;;;;13.03;4.95;;;;;;;25.48;52.39;101430.70;1625135;87;21085;-81
2021/06/24 10:43:13;;;;;;;7.17;3.62;;;;;;;25.39;52.23;101439.42;1608072;87;21103;-81
2021/06/24 10:45:42;;;;;;;7.40;3.58;;;;;;;25.55;52.17;101439.93;1599880;88;21126;-81
2021/06/24 10:48:30;;;;;;;5.60;3.05;;;;;;;25.58;51.59;101436.26;1597204;88;21819;-81
2021/06/24 10:51:03;;;;;;;13.25;4.00;;;;;;;25.55;51.08;101457.92;1616298;88;21031;-81
2021/06/24 10:53:39;;;;;;;8.80;4.40;;;;;;;25.52;51.53;101455.30;1616650;88;21103;-81
2021/06/24 10:56:31;;;;;;;5.25;3.87;;;;;;;25.62;51.42;101443.36;1616215;88;21873;-81
2021/06/24 10:59:04;;;;;;;7.42;3.60;;;;;;;25.87;51.22;101450.31;1616475;88;21020;-81
2021/06/24 11:01:44;;;;;;;8.90;3.98;;;;;;;25.86;49.97;101453.05;1612898;88;21780;-81
2021/06/24 11:04:38;;;;;;;8.15;3.92;;;;;;;25.83;50.28;101471.99;1615865;88;21676;-81
2021/06/24 11:07:16;;;;;;;6.78;4.03;;;;;;;25.72;50.35;101474.53;1616461;88;21110;-82
2021/06/24 11:10:16;;;;;;;6.10;3.20;;;;;;;25.78;50.45;101458.17;1610081;88;21098;-81
2021/06/24 11:12:59;;;;;;;12.18;4.03;;;;;;;25.94;50.14;101468.13;1637113;87;21167;-81
2021/06/24 11:15:51;;;;;;;6.53;3.42;;;;;;;25.86;49.78;101449.88;1632403;87;22698;-81
2021/06/24 11:18:45;;;;;;;5.05;2.58;;;;;;;25.83;49.71;101443.23;1632269;87;21095;-82
2021/06/24 11:21:21;;;;;;;6.05;3.08;;;;;;;25.81;49.06;101459.92;1632635;87;21098;-81
2021/06/24 11:24:00;;;;;;;7.40;2.75;;;;;;;25.47;48.65;101455.43;1632482;87;22349;-81
2021/06/24 11:26:39;;;;;;;7.25;3.20;;;;;;;25.30;49.25;101458.55;1632499;87;21122;-81